Time;durP1;ratioP1;P1;durP2;ratioP2;P2;SDS_P1;SDS_P2;PMS_P1;PMS_P2;Temp;Humidity;BMP_temperature;BMP_pressure;BME280_temperature;BME280_humidity;BME280_pressure;Samples;Min_cycle;Max_cycle;Signal;HPM_P1;HPM_P2
2021/03/03 00:00:29;;;;;;;30.55;17.95;;;;;;;;;;1037163;28;20127;-77
2021/03/03 00:01:00;;;;;;;26.60;16.55;;;;;;;;;;1038390;28;20414;-76
2021/03/03 00:01:31;;;;;;;28.45;17.50;;;;;;;;;;1031867;28;20043;-76
2021/03/03 00:02:02;;;;;;;28.38;17.20;;;;;;;;;;1036197;28;20165;-77
2021/03/03 00:02:33;;;;;;;29.55;17.15;;;;;;;;;;1036667;28;20054;-77
2021/03/03 00:03:05;;;;;;;25.75;17.23;;;;;;;;;;1041268;28;20054;-76
2021/03/03 00:03:36;;;;;;;29.10;16.38;;;;;;;;;;1048386;28;19920;-77
2021/03/03 00:04:07;;;;;;;27.25;16.88;;;;;;;;;;1044468;28;20052;-77
2021/03/03 00:04:38;;;;;;;27.33;16.83;;;;;;;;;;1044804;28;20475;-76
2021/03/03 00:05:09;;;;;;;27.02;15.63;;;;;;;;;;1048122;28;20135;-77
2021/03/03 00:05:40;;;;;;;28.92;16.65;;;;;;;;;;1040019;28;20081;-77
2021/03/03 00:06:11;;;;;;;26.15;15.95;;;;;;;;;;1036627;28;20080;-77
2021/03/03 00:06:42;;;;;;;28.13;16.90;;;;;;;;;;1036449;28;20053;-77
2021/03/03 00:07:14;;;;;;;27.40;19.05;;;;;;;;;;1040453;28;20051;-76
2021/03/03 00:07:45;;;;;;;28.15;17.83;;;;;;;;;;1040658;28;20053;-77
2021/03/03 00:08:16;;;;;;;26.48;17.60;;;;;;;;;;1040618;28;20045;-77
2021/03/03 00:08:47;;;;;;;26.33;17.73;;;;;;;;;;1036568;28;20053;-77
2021/03/03 00:09:18;;;;;;;27.65;16.98;;;;;;;;;;1036215;28;20464;-77
2021/03/03 00:09:49;;;;;;;33.22;17.90;;;;;;;;;;1036012;28;20526;-76
2021/03/03 00:10:20;;;;;;;27.35;16.98;;;;;;;;;;1036499;28;20481;-77
2021/03/03 00:10:51;;;;;;;30.63;16.92;;;;;;;;;;1040494;28;20050;-76
2021/03/03 00:11:22;;;;;;;31.73;18.80;;;;;;;;;;1044461;28;20063;-77
2021/03/03 00:11:53;;;;;;;30.05;17.90;;;;;;;;;;1040361;28;20057;-76
2021/03/03 00:12:24;;;;;;;24.42;16.65;;;;;;;;;;1036106;28;20069;-77
2021/03/03 00:12:55;;;;;;;26.55;17.23;;;;;;;;;;1032158;28;20050;-76
2021/03/03 00:13:26;;;;;;;28.13;16.55;;;;;;;;;;1032424;28;20046;-76
2021/03/03 00:13:57;;;;;;;29.65;17.50;;;;;;;;;;1039110;28;20449;-77
2021/03/03 00:14:27;;;;;;;30.50;18.15;;;;;;;;;;1039921;28;20133;-77
2021/03/03 00:14:58;;;;;;;23.90;15.52;;;;;;;;;;1036432;28;20049;-77
2021/03/03 00:15:29;;;;;;;26.13;17.30;;;;;;;;;;1040198;28;20081;-77
2021/03/03 00:16:00;;;;;;;25.08;16.23;;;;;;;;;;1040154;28;20045;-77
2021/03/03 00:16:32;;;;;;;25.83;16.40;;;;;;;;;;1044246;28;20056;-77
2021/03/03 00:17:03;;;;;;;29.98;16.63;;;;;;;;;;1044585;28;20056;-77
2021/03/03 00:17:35;;;;;;;32.25;19.55;;;;;;;;;;1044823;28;20060;-77
2021/03/03 00:18:06;;;;;;;32.20;16.67;;;;;;;;;;1048867;28;20055;-77
2021/03/03 00:18:37;;;;;;;30.70;18.23;;;;;;;;;;1048427;28;20105;-77
2021/03/03 00:19:08;;;;;;;25.88;16.35;;;;;;;;;;1040792;28;20072;-76
2021/03/03 00:19:39;;;;;;;26.10;17.80;;;;;;;;;;1040095;28;20115;-77
2021/03/03 00:20:11;;;;;;;26.23;17.42;;;;;;;;;;1036272;28;20046;-77
2021/03/03 00:20:41;;;;;;;28.42;18.27;;;;;;;;;;1036863;28;20056;-77
2021/03/03 00:21:13;;;;;;;25.55;17.17;;;;;;;;;;1036691;28;20128;-76
2021/03/03 00:21:44;;;;;;;29.00;18.17;;;;;;;;;;1036591;28;20050;-76
2021/03/03 00:22:15;;;;;;;27.77;17.70;;;;;;;;;;1033272;28;20054;-77
2021/03/03 00:22:46;;;;;;;26.35;17.92;;;;;;;;;;1036547;28;20054;-76
2021/03/03 00:23:17;;;;;;;30.38;18.38;;;;;;;;;;1032355;28;20050;-77
2021/03/03 00:23:48;;;;;;;31.65;18.15;;;;;;;;;;1032079;28;20082;-76
2021/03/03 00:24:19;;;;;;;29.35;18.75;;;;;;;;;;1033662;28;20066;-77
2021/03/03 00:24:50;;;;;;;24.08;16.77;;;;;;;;;;1040112;28;20041;-77
2021/03/03 00:25:21;;;;;;;32.17;17.73;;;;;;;;;;1044564;28;20045;-76
2021/03/03 00:25:52;;;;;;;26.20;17.10;;;;;;;;;;1044197;28;20044;-77
2021/03/03 00:26:23;;;;;;;27.58;17.85;;;;;;;;;;1044089;28;20175;-76
2021/03/03 00:26:54;;;;;;;26.88;17.48;;;;;;;;;;1043839;28;20049;-76
2021/03/03 00:27:25;;;;;;;28.27;18.55;;;;;;;;;;1044459;28;20045;-77
2021/03/03 00:28:14;;;;;;;32.42;17.95;;;;;;;;;;1043933;28;20478;-76
2021/03/03 00:28:46;;;;;;;32.00;18.35;;;;;;;;;;1041450;28;20474;-77
2021/03/03 00:29:17;;;;;;;27.73;18.38;;;;;;;;;;1043217;28;20055;-77
2021/03/03 00:29:48;;;;;;;29.00;16.92;;;;;;;;;;1043041;28;20041;-77
2021/03/03 00:30:19;;;;;;;25.67;17.30;;;;;;;;;;1040609;28;20045;-77
2021/03/03 00:30:50;;;;;;;27.15;17.08;;;;;;;;;;1040117;28;20055;-76
2021/03/03 00:31:21;;;;;;;27.33;17.83;;;;;;;;;;1040604;28;20060;-77
2021/03/03 00:31:53;;;;;;;24.40;16.85;;;;;;;;;;1039937;28;20126;-77
2021/03/03 00:32:24;;;;;;;31.23;17.75;;;;;;;;;;1036324;28;20054;-77
2021/03/03 00:32:55;;;;;;;30.13;18.90;;;;;;;;;;1036478;28;20073;-76
2021/03/03 00:33:26;;;;;;;30.58;19.38;;;;;;;;;;1035958;28;20048;-76
2021/03/03 00:33:57;;;;;;;29.15;18.30;;;;;;;;;;1036093;28;20061;-77
2021/03/03 00:34:28;;;;;;;25.33;17.50;;;;;;;;;;1038480;28;20518;-77
2021/03/03 00:34:59;;;;;;;32.42;20.27;;;;;;;;;;1039903;28;20052;-77
2021/03/03 00:35:30;;;;;;;29.13;18.85;;;;;;;;;;1036464;28;20050;-76
2021/03/03 00:36:01;;;;;;;28.85;18.02;;;;;;;;;;1036656;28;20050;-77
2021/03/03 00:36:32;;;;;;;34.97;21.08;;;;;;;;;;1036320;28;20498;-77
2021/03/03 00:37:03;;;;;;;31.85;18.90;;;;;;;;;;1032163;28;20050;-77
2021/03/03 00:37:34;;;;;;;28.33;17.73;;;;;;;;;;1031926;28;20062;-77
2021/03/03 00:38:05;;;;;;;29.33;18.70;;;;;;;;;;1036092;28;20069;-76
2021/03/03 00:38:36;;;;;;;32.65;19.83;;;;;;;;;;1036434;28;20050;-76
2021/03/03 00:39:07;;;;;;;28.13;17.63;;;;;;;;;;1036446;28;20057;-76
2021/03/03 00:39:38;;;;;;;33.38;20.13;;;;;;;;;;1036075;28;20061;-77
2021/03/03 00:40:10;;;;;;;32.35;18.15;;;;;;;;;;1036319;28;20046;-77
2021/03/03 00:40:41;;;;;;;32.85;19.65;;;;;;;;;;1040596;28;20056;-76
2021/03/03 00:41:12;;;;;;;30.55;19.48;;;;;;;;;;1036358;28;20180;-76
2021/03/03 00:41:43;;;;;;;31.83;19.10;;;;;;;;;;1036308;28;20050;-76
2021/03/03 00:42:14;;;;;;;32.67;18.70;;;;;;;;;;1036397;28;20072;-77
2021/03/03 00:42:45;;;;;;;32.55;19.10;;;;;;;;;;1044133;28;20052;-76
2021/03/03 00:43:16;;;;;;;29.55;18.67;;;;;;;;;;1044061;28;20049;-77
2021/03/03 00:43:47;;;;;;;34.35;19.13;;;;;;;;;;1040408;28;20191;-76
2021/03/03 00:44:18;;;;;;;27.92;18.23;;;;;;;;;;1039665;28;20053;-77
2021/03/03 00:44:49;;;;;;;34.00;20.58;;;;;;;;;;1040022;28;20057;-76
2021/03/03 00:45:20;;;;;;;31.60;18.48;;;;;;;;;;1036597;28;20179;-77
2021/03/03 00:45:51;;;;;;;27.77;18.73;;;;;;;;;;1040531;28;20053;-76
2021/03/03 00:46:22;;;;;;;33.90;21.13;;;;;;;;;;1044481;28;20056;-76
2021/03/03 00:46:53;;;;;;;30.23;19.27;;;;;;;;;;1044677;28;20153;-76
2021/03/03 00:47:24;;;;;;;30.45;19.30;;;;;;;;;;1043876;28;20044;-77
2021/03/03 00:47:55;;;;;;;26.10;17.35;;;;;;;;;;1039327;28;20080;-77
2021/03/03 00:48:26;;;;;;;29.90;18.45;;;;;;;;;;1040080;28;20049;-76
2021/03/03 00:48:57;;;;;;;29.67;17.65;;;;;;;;;;1040145;28;20087;-76
2021/03/03 00:49:28;;;;;;;25.95;18.25;;;;;;;;;;1040068;28;20471;-77
2021/03/03 00:49:59;;;;;;;30.65;17.33;;;;;;;;;;1040023;28;20045;-76
2021/03/03 00:50:30;;;;;;;28.05;18.50;;;;;;;;;;1036476;28;20050;-76
2021/03/03 00:51:01;;;;;;;32.33;19.65;;;;;;;;;;1036373;28;20046;-77
2021/03/03 00:51:32;;;;;;;31.65;19.17;;;;;;;;;;1040199;28;20561;-77
2021/03/03 00:52:04;;;;;;;25.77;17.83;;;;;;;;;;1040314;28;20541;-77
2021/03/03 00:52:35;;;;;;;32.58;20.00;;;;;;;;;;1044226;28;20063;-77
2021/03/03 00:53:13;;;;;;;30.35;19.42;;;;;;;;;;1044663;28;20049;-76
2021/03/03 00:53:45;;;;;;;29.10;17.95;;;;;;;;;;1041342;28;20121;-77
2021/03/03 00:54:16;;;;;;;31.05;19.17;;;;;;;;;;1040642;28;20054;-77
2021/03/03 00:54:47;;;;;;;34.67;20.73;;;;;;;;;;1031907;28;20058;-77
2021/03/03 00:55:18;;;;;;;29.33;17.23;;;;;;;;;;1036362;28;20049;-76
2021/03/03 00:55:50;;;;;;;24.65;17.80;;;;;;;;;;1035987;28;20053;-77
2021/03/03 00:56:21;;;;;;;30.00;18.73;;;;;;;;;;1035457;28;20045;-77
2021/03/03 00:56:52;;;;;;;34.33;19.00;;;;;;;;;;1040109;28;20057;-76
2021/03/03 00:57:23;;;;;;;29.50;18.77;;;;;;;;;;1040102;28;20402;-76
2021/03/03 00:57:54;;;;;;;32.50;19.35;;;;;;;;;;1044480;28;20091;-76
2021/03/03 00:58:37;;;;;;;33.97;18.60;;;;;;;;;;1048219;28;20110;-76
2021/03/03 00:59:08;;;;;;;33.28;19.27;;;;;;;;;;1042114;28;20053;-76
2021/03/03 00:59:39;;;;;;;34.25;20.23;;;;;;;;;;1042095;28;20127;-76
2021/03/03 01:00:11;;;;;;;31.98;19.15;;;;;;;;;;1036979;28;20053;-77
2021/03/03 01:00:42;;;;;;;33.03;18.88;;;;;;;;;;1036435;28;20430;-76
2021/03/03 01:01:14;;;;;;;32.90;19.65;;;;;;;;;;1036497;28;20050;-77
2021/03/03 01:01:45;;;;;;;33.95;20.17;;;;;;;;;;1032306;28;20046;-77
2021/03/03 01:02:17;;;;;;;32.13;19.38;;;;;;;;;;1036372;28;20050;-76
2021/03/03 01:02:48;;;;;;;30.60;18.70;;;;;;;;;;1040654;28;20163;-76
2021/03/03 01:03:19;;;;;;;41.28;20.48;;;;;;;;;;1040101;28;20158;-77
2021/03/03 01:03:50;;;;;;;35.72;21.20;;;;;;;;;;1039965;28;20049;-77
2021/03/03 01:04:21;;;;;;;29.08;19.77;;;;;;;;;;1039781;28;20119;-77
2021/03/03 01:04:52;;;;;;;30.92;19.00;;;;;;;;;;1040261;28;20425;-77
2021/03/03 01:05:24;;;;;;;28.45;19.05;;;;;;;;;;1040319;28;20060;-77
2021/03/03 01:05:54;;;;;;;33.15;19.10;;;;;;;;;;1040398;28;20133;-76
2021/03/03 01:06:25;;;;;;;29.77;19.50;;;;;;;;;;1038666;28;20105;-77
2021/03/03 01:06:57;;;;;;;30.50;17.25;;;;;;;;;;1035950;28;20046;-77
2021/03/03 01:07:28;;;;;;;30.90;19.55;;;;;;;;;;1027933;28;20047;-77
2021/03/03 01:07:58;;;;;;;30.08;18.58;;;;;;;;;;1031826;28;20050;-77
2021/03/03 01:08:29;;;;;;;31.15;19.48;;;;;;;;;;1031926;28;20084;-77
2021/03/03 01:09:00;;;;;;;25.38;17.35;;;;;;;;;;1035948;28;20073;-77
2021/03/03 01:09:31;;;;;;;33.67;20.17;;;;;;;;;;1036286;28;20061;-76
2021/03/03 01:10:03;;;;;;;27.75;18.63;;;;;;;;;;1039922;28;20049;-77
2021/03/03 01:10:34;;;;;;;39.90;19.95;;;;;;;;;;1036340;28;20143;-77
2021/03/03 01:11:05;;;;;;;30.75;18.48;;;;;;;;;;1041042;28;20061;-77
2021/03/03 01:11:36;;;;;;;30.00;19.70;;;;;;;;;;1037082;28;20096;-77
2021/03/03 01:12:07;;;;;;;33.25;18.92;;;;;;;;;;1036241;28;20057;-77
2021/03/03 01:12:38;;;;;;;28.52;17.83;;;;;;;;;;1035830;28;20053;-77
2021/03/03 01:13:09;;;;;;;32.80;20.13;;;;;;;;;;1036459;28;20140;-77
2021/03/03 01:13:40;;;;;;;29.25;19.30;;;;;;;;;;1040440;28;20054;-76
2021/03/03 01:14:11;;;;;;;28.85;19.65;;;;;;;;;;1043841;28;20064;-77
2021/03/03 01:14:42;;;;;;;29.92;19.52;;;;;;;;;;1041758;28;20643;-77
2021/03/03 01:15:14;;;;;;;34.42;19.98;;;;;;;;;;1040044;28;20053;-77
2021/03/03 01:15:45;;;;;;;32.15;19.35;;;;;;;;;;1036408;28;20054;-76
2021/03/03 01:16:16;;;;;;;37.75;20.27;;;;;;;;;;1038263;28;20057;-76
2021/03/03 01:16:51;;;;;;;30.20;19.42;;;;;;;;;;1044220;28;20052;-76
2021/03/03 01:17:22;;;;;;;36.03;19.45;;;;;;;;;;1044158;28;20060;-76
2021/03/03 01:17:59;;;;;;;33.20;19.63;;;;;;;;;;1040856;28;20056;-76
2021/03/03 01:18:31;;;;;;;40.03;20.30;;;;;;;;;;1040139;28;20163;-76
2021/03/03 01:19:02;;;;;;;32.35;21.42;;;;;;;;;;1034689;28;20057;-77
2021/03/03 01:19:33;;;;;;;34.22;21.35;;;;;;;;;;1037159;28;20050;-77
2021/03/03 01:20:05;;;;;;;35.45;21.42;;;;;;;;;;1037170;28;20050;-77
2021/03/03 01:20:36;;;;;;;31.42;19.42;;;;;;;;;;1036845;28;20053;-77
2021/03/03 01:21:07;;;;;;;33.75;20.38;;;;;;;;;;1038359;28;20132;-77
2021/03/03 01:21:38;;;;;;;31.50;19.10;;;;;;;;;;1036354;28;20054;-77
2021/03/03 01:22:09;;;;;;;31.48;21.45;;;;;;;;;;1036158;28;20058;-76
2021/03/03 01:22:40;;;;;;;31.23;20.67;;;;;;;;;;1039963;28;20041;-77
2021/03/03 01:23:11;;;;;;;34.00;20.42;;;;;;;;;;1035894;28;20058;-77
2021/03/03 01:23:41;;;;;;;31.85;20.42;;;;;;;;;;1036251;28;20148;-77
2021/03/03 01:24:15;;;;;;;32.90;20.20;;;;;;;;;;1032576;28;20172;-77
2021/03/03 01:24:46;;;;;;;33.58;20.30;;;;;;;;;;1036094;28;20061;-77
2021/03/03 01:25:17;;;;;;;32.28;21.33;;;;;;;;;;1035793;28;20510;-77
2021/03/03 01:25:48;;;;;;;36.90;20.20;;;;;;;;;;1041040;28;20046;-77
2021/03/03 01:26:19;;;;;;;33.42;18.52;;;;;;;;;;1039703;28;20045;-76
2021/03/03 01:26:50;;;;;;;33.03;18.75;;;;;;;;;;1032296;28;20054;-77
2021/03/03 01:27:21;;;;;;;32.53;19.60;;;;;;;;;;1035789;28;20049;-77
2021/03/03 01:27:52;;;;;;;33.22;20.15;;;;;;;;;;1036249;28;20046;-77
2021/03/03 01:28:23;;;;;;;34.65;22.08;;;;;;;;;;1040004;28;20053;-77
2021/03/03 01:28:58;;;;;;;34.85;20.77;;;;;;;;;;1039999;28;20053;-77
2021/03/03 01:29:29;;;;;;;30.33;19.45;;;;;;;;;;1043833;28;20056;-76
2021/03/03 01:30:01;;;;;;;32.60;19.70;;;;;;;;;;1040071;28;20154;-76
2021/03/03 01:30:31;;;;;;;32.10;20.73;;;;;;;;;;1037876;28;20127;-77
2021/03/03 01:31:02;;;;;;;29.80;20.08;;;;;;;;;;1040391;28;20414;-77
2021/03/03 01:31:34;;;;;;;33.08;20.83;;;;;;;;;;1039809;28;20056;-76
2021/03/03 01:32:05;;;;;;;35.92;22.70;;;;;;;;;;1035896;28;20050;-78
2021/03/03 01:32:36;;;;;;;36.45;20.48;;;;;;;;;;1032582;28;20047;-77
2021/03/03 01:33:07;;;;;;;33.10;20.10;;;;;;;;;;1040342;28;20553;-77
2021/03/03 01:33:38;;;;;;;37.45;22.30;;;;;;;;;;1044399;28;20382;-77
2021/03/03 01:34:09;;;;;;;34.45;20.88;;;;;;;;;;1044420;28;20442;-77
2021/03/03 01:34:40;;;;;;;38.25;22.55;;;;;;;;;;1045134;28;20056;-77
2021/03/03 01:35:12;;;;;;;33.10;20.00;;;;;;;;;;1035782;28;20097;-77
2021/03/03 01:35:43;;;;;;;38.20;22.55;;;;;;;;;;1038484;28;20053;-77
2021/03/03 01:36:14;;;;;;;36.58;22.23;;;;;;;;;;1044164;28;20142;-77
2021/03/03 01:36:45;;;;;;;42.50;22.48;;;;;;;;;;1036853;28;20061;-77
2021/03/03 01:37:16;;;;;;;36.75;21.75;;;;;;;;;;1039893;28;20057;-77
2021/03/03 01:37:47;;;;;;;34.10;21.08;;;;;;;;;;1040272;28;20069;-77
2021/03/03 01:38:18;;;;;;;34.97;20.90;;;;;;;;;;1040715;28;20092;-76
2021/03/03 01:38:49;;;;;;;36.72;22.40;;;;;;;;;;1044070;28;20052;-77
2021/03/03 01:39:20;;;;;;;32.83;21.75;;;;;;;;;;1043970;28;20053;-77
2021/03/03 01:39:51;;;;;;;44.53;21.65;;;;;;;;;;1044046;28;20044;-76
2021/03/03 01:40:22;;;;;;;34.08;20.70;;;;;;;;;;1044517;28;20045;-77
2021/03/03 01:40:53;;;;;;;34.67;20.73;;;;;;;;;;1048174;28;20044;-77
2021/03/03 01:41:24;;;;;;;32.80;21.17;;;;;;;;;;1043942;28;20049;-76
2021/03/03 01:41:55;;;;;;;36.90;20.73;;;;;;;;;;1036155;28;20058;-76
2021/03/03 01:42:27;;;;;;;33.53;20.80;;;;;;;;;;1040129;28;20045;-76
2021/03/03 01:42:58;;;;;;;35.83;22.63;;;;;;;;;;1040456;28;20052;-77
2021/03/03 01:43:32;;;;;;;35.05;21.13;;;;;;;;;;1045030;28;20045;-76
2021/03/03 01:44:03;;;;;;;37.35;22.08;;;;;;;;;;1048084;28;20060;-76
2021/03/03 01:44:34;;;;;;;32.70;19.73;;;;;;;;;;1044383;28;20441;-77
2021/03/03 01:45:06;;;;;;;32.50;20.67;;;;;;;;;;1040138;28;20528;-77
2021/03/03 01:45:37;;;;;;;30.60;20.02;;;;;;;;;;1036285;28;20104;-77
2021/03/03 01:46:08;;;;;;;37.15;24.10;;;;;;;;;;1036422;28;20406;-77
2021/03/03 01:46:39;;;;;;;40.65;25.13;;;;;;;;;;1032748;28;20054;-77
2021/03/03 01:47:11;;;;;;;34.88;21.55;;;;;;;;;;1031969;28;20057;-77
2021/03/03 01:47:42;;;;;;;34.33;20.55;;;;;;;;;;1035820;28;20045;-77
2021/03/03 01:48:13;;;;;;;34.08;20.52;;;;;;;;;;1043805;28;20177;-76
2021/03/03 01:48:44;;;;;;;38.83;23.15;;;;;;;;;;1043930;28;20056;-76
2021/03/03 01:49:16;;;;;;;45.53;23.17;;;;;;;;;;1044147;28;20061;-77
2021/03/03 01:49:47;;;;;;;38.05;22.00;;;;;;;;;;1044082;28;20049;-77
2021/03/03 01:50:18;;;;;;;39.08;23.45;;;;;;;;;;1044013;28;20110;-77
2021/03/03 01:50:49;;;;;;;47.85;23.05;;;;;;;;;;1044375;28;20118;-77
2021/03/03 01:51:20;;;;;;;36.40;22.42;;;;;;;;;;1044096;28;20420;-76
2021/03/03 01:51:51;;;;;;;36.78;20.83;;;;;;;;;;1039924;28;20120;-77
2021/03/03 01:52:23;;;;;;;42.78;23.20;;;;;;;;;;1039875;28;20482;-77
2021/03/03 01:52:54;;;;;;;40.38;24.25;;;;;;;;;;1040282;28;20061;-77
2021/03/03 01:53:24;;;;;;;40.92;23.95;;;;;;;;;;1039689;28;20132;-76
2021/03/03 01:53:55;;;;;;;44.35;26.00;;;;;;;;;;1039971;28;20053;-76
2021/03/03 01:54:26;;;;;;;38.17;22.92;;;;;;;;;;1039914;28;20042;-76
2021/03/03 01:54:58;;;;;;;43.95;24.48;;;;;;;;;;1039747;28;20081;-77
2021/03/03 01:55:29;;;;;;;37.63;22.65;;;;;;;;;;1036559;28;20072;-77
2021/03/03 01:56:00;;;;;;;37.92;23.38;;;;;;;;;;1039870;28;20049;-77
2021/03/03 01:56:31;;;;;;;37.08;22.60;;;;;;;;;;1036523;28;20058;-77
2021/03/03 01:57:02;;;;;;;32.53;22.00;;;;;;;;;;1040078;28;20050;-77
2021/03/03 01:57:33;;;;;;;35.88;22.25;;;;;;;;;;1040292;28;20120;-76
2021/03/03 01:58:04;;;;;;;34.50;21.60;;;;;;;;;;1040259;28;20045;-77
2021/03/03 01:58:35;;;;;;;37.17;22.05;;;;;;;;;;1040177;28;20405;-77
2021/03/03 01:59:19;;;;;;;40.55;23.38;;;;;;;;;;1040052;28;20056;-77
2021/03/03 01:59:50;;;;;;;41.15;23.95;;;;;;;;;;1035524;28;20521;-77
2021/03/03 02:00:21;;;;;;;39.83;24.15;;;;;;;;;;1033897;28;20050;-77
2021/03/03 02:00:52;;;;;;;42.47;23.75;;;;;;;;;;1035891;28;20052;-76
2021/03/03 02:01:23;;;;;;;36.10;22.55;;;;;;;;;;1032130;28;20057;-76
2021/03/03 02:01:54;;;;;;;39.28;23.50;;;;;;;;;;1035491;28;20062;-77
2021/03/03 02:02:26;;;;;;;30.98;20.33;;;;;;;;;;1031762;28;20082;-77
2021/03/03 02:02:57;;;;;;;39.15;23.27;;;;;;;;;;1028242;28;20569;-77
2021/03/03 02:03:28;;;;;;;41.55;22.98;;;;;;;;;;1035301;28;20132;-77
2021/03/03 02:03:59;;;;;;;33.08;22.42;;;;;;;;;;1036560;28;20054;-77
2021/03/03 02:04:30;;;;;;;36.97;23.80;;;;;;;;;;1034676;28;20050;-76
2021/03/03 02:05:02;;;;;;;34.67;21.83;;;;;;;;;;1036091;28;20042;-76
2021/03/03 02:05:33;;;;;;;34.20;21.48;;;;;;;;;;1036187;28;20486;-77
2021/03/03 02:06:11;;;;;;;38.13;22.75;;;;;;;;;;1032672;28;20058;-77
2021/03/03 02:06:56;;;;;;;39.92;23.33;;;;;;;;;;1036183;28;20053;-77
2021/03/03 02:07:43;;;;;;;34.83;20.38;;;;;;;;;;1035726;28;20058;-77
2021/03/03 02:08:18;;;;;;;37.63;23.27;;;;;;;;;;1035933;28;20045;-77
2021/03/03 02:08:56;;;;;;;38.92;21.38;;;;;;;;;;1035771;28;20049;-77
2021/03/03 02:09:36;;;;;;;34.05;20.50;;;;;;;;;;1035534;28;20061;-77
2021/03/03 02:10:12;;;;;;;41.67;22.05;;;;;;;;;;1043076;28;20551;-77
2021/03/03 02:10:49;;;;;;;38.92;21.20;;;;;;;;;;1043229;28;20058;-77
2021/03/03 02:11:47;;;;;;;35.38;21.17;;;;;;;;;;1039696;28;20050;-77
2021/03/03 02:12:25;;;;;;;32.97;19.45;;;;;;;;;;1040495;28;20049;-77
2021/03/03 02:13:01;;;;;;;31.67;20.42;;;;;;;;;;1044766;28;20452;-77
2021/03/03 02:13:35;;;;;;;36.10;21.42;;;;;;;;;;1039898;28;20045;-77
2021/03/03 02:14:09;;;;;;;39.05;22.02;;;;;;;;;;1039833;28;20517;-77
2021/03/03 02:14:44;;;;;;;38.13;20.67;;;;;;;;;;1035694;28;20053;-77
2021/03/03 02:15:15;;;;;;;35.05;20.85;;;;;;;;;;1037610;28;20046;-77
2021/03/03 02:15:47;;;;;;;31.33;20.73;;;;;;;;;;1037105;28;20506;-77
2021/03/03 02:16:19;;;;;;;30.48;20.63;;;;;;;;;;1036726;28;20065;-77
2021/03/03 02:16:51;;;;;;;37.35;21.13;;;;;;;;;;1031718;28;20053;-77
2021/03/03 02:17:24;;;;;;;35.42;21.80;;;;;;;;;;1031636;28;20049;-77
2021/03/03 02:17:56;;;;;;;34.05;21.08;;;;;;;;;;1030440;28;20050;-77
2021/03/03 02:18:28;;;;;;;34.10;20.58;;;;;;;;;;1032732;28;20055;-77
2021/03/03 02:19:00;;;;;;;33.15;21.10;;;;;;;;;;1036849;28;20379;-77
2021/03/03 02:19:36;;;;;;;34.67;21.05;;;;;;;;;;1040438;28;20469;-77
2021/03/03 02:20:09;;;;;;;32.17;20.42;;;;;;;;;;1035805;28;20397;-77
2021/03/03 02:21:09;;;;;;;35.47;22.55;;;;;;;;;;1031883;28;20050;-77
2021/03/03 02:21:44;;;;;;;29.23;18.33;;;;;;;;;;1035842;28;20534;-77
2021/03/03 02:22:23;;;;;;;37.65;19.88;;;;;;;;;;1036782;28;20049;-77
2021/03/03 02:23:06;;;;;;;31.73;19.30;;;;;;;;;;1043938;28;20064;-77
2021/03/03 02:23:54;;;;;;;33.70;20.23;;;;;;;;;;1044019;28;20531;-77
2021/03/03 02:24:25;;;;;;;34.75;19.95;;;;;;;;;;1046450;28;20056;-77
2021/03/03 02:25:04;;;;;;;33.78;21.40;;;;;;;;;;1048336;28;20409;-77
2021/03/03 02:25:36;;;;;;;34.03;20.73;;;;;;;;;;1044873;28;20045;-77
2021/03/03 02:26:07;;;;;;;31.75;19.08;;;;;;;;;;1038106;28;20046;-77
2021/03/03 02:26:38;;;;;;;36.08;21.23;;;;;;;;;;1037955;28;20046;-77
2021/03/03 02:27:10;;;;;;;33.72;20.52;;;;;;;;;;1037048;28;20050;-77
2021/03/03 02:27:41;;;;;;;40.08;22.23;;;;;;;;;;1041147;28;20061;-76
2021/03/03 02:28:14;;;;;;;38.45;22.33;;;;;;;;;;1036402;28;20058;-77
2021/03/03 02:28:45;;;;;;;34.30;20.90;;;;;;;;;;1033067;28;20491;-76
2021/03/03 02:29:20;;;;;;;32.75;19.67;;;;;;;;;;1034897;28;20050;-77
2021/03/03 02:29:52;;;;;;;34.08;21.10;;;;;;;;;;1036601;28;20053;-76
2021/03/03 02:30:23;;;;;;;30.98;20.13;;;;;;;;;;1036490;28;20105;-77
2021/03/03 02:30:54;;;;;;;32.55;21.70;;;;;;;;;;1040504;28;20049;-77
2021/03/03 02:31:25;;;;;;;33.35;20.58;;;;;;;;;;1040725;28;20052;-77
2021/03/03 02:31:57;;;;;;;37.15;22.00;;;;;;;;;;1041000;28;20058;-77
2021/03/03 02:32:28;;;;;;;36.08;21.15;;;;;;;;;;1040792;28;20049;-77
2021/03/03 02:33:00;;;;;;;29.35;20.55;;;;;;;;;;1040704;28;20053;-77
2021/03/03 02:33:32;;;;;;;29.70;20.35;;;;;;;;;;1044834;28;20568;-77
2021/03/03 02:34:04;;;;;;;33.80;20.50;;;;;;;;;;1040624;28;20494;-77
2021/03/03 02:34:35;;;;;;;30.40;19.90;;;;;;;;;;1037976;28;20058;-77
2021/03/03 02:35:09;;;;;;;36.92;19.17;;;;;;;;;;1041026;28;20383;-76
2021/03/03 02:35:41;;;;;;;34.97;21.25;;;;;;;;;;1044537;28;20521;-77
2021/03/03 02:36:12;;;;;;;35.78;22.20;;;;;;;;;;1037375;28;20050;-77
2021/03/03 02:36:43;;;;;;;35.00;22.15;;;;;;;;;;1036488;28;20407;-77
2021/03/03 02:37:15;;;;;;;34.60;19.98;;;;;;;;;;1040957;28;20046;-77
2021/03/03 02:37:47;;;;;;;32.55;20.27;;;;;;;;;;1041147;28;20052;-77
2021/03/03 02:38:18;;;;;;;33.75;21.02;;;;;;;;;;1036585;28;20053;-77
2021/03/03 02:38:49;;;;;;;41.30;22.40;;;;;;;;;;1032910;28;20050;-77
2021/03/03 02:39:22;;;;;;;33.15;22.10;;;;;;;;;;1036884;28;20073;-77
2021/03/03 02:39:54;;;;;;;34.85;21.10;;;;;;;;;;1037280;28;20072;-77
2021/03/03 02:40:27;;;;;;;39.55;20.27;;;;;;;;;;1040578;28;20457;-77
2021/03/03 02:40:58;;;;;;;31.73;20.42;;;;;;;;;;1036473;28;20050;-77
2021/03/03 02:41:31;;;;;;;38.85;21.05;;;;;;;;;;1033080;28;20050;-76
2021/03/03 02:42:02;;;;;;;39.92;22.48;;;;;;;;;;1029256;28;20109;-77
2021/03/03 02:42:37;;;;;;;35.75;19.70;;;;;;;;;;1029156;28;20058;-77
2021/03/03 02:43:12;;;;;;;34.67;20.10;;;;;;;;;;1032372;28;20435;-77
2021/03/03 02:43:44;;;;;;;34.22;21.02;;;;;;;;;;1035680;28;20114;-76
2021/03/03 02:44:15;;;;;;;33.85;20.98;;;;;;;;;;1037941;28;20507;-77
2021/03/03 02:44:47;;;;;;;35.10;21.67;;;;;;;;;;1035628;28;20054;-76
2021/03/03 02:45:19;;;;;;;37.42;22.17;;;;;;;;;;1036351;28;20058;-76
2021/03/03 02:45:50;;;;;;;32.03;21.50;;;;;;;;;;1036611;28;20053;-77
2021/03/03 02:46:22;;;;;;;33.08;20.75;;;;;;;;;;1036564;28;20049;-76
2021/03/03 02:46:54;;;;;;;35.38;22.33;;;;;;;;;;1032382;28;20046;-77
2021/03/03 02:47:25;;;;;;;35.85;21.95;;;;;;;;;;1040297;28;20049;-77
2021/03/03 02:47:57;;;;;;;35.42;21.75;;;;;;;;;;1036693;28;20410;-77
2021/03/03 02:48:28;;;;;;;31.13;20.17;;;;;;;;;;1039477;28;20202;-77
2021/03/03 02:49:00;;;;;;;30.70;20.38;;;;;;;;;;1033927;28;20470;-77
2021/03/03 02:49:31;;;;;;;34.45;20.70;;;;;;;;;;1041188;28;20060;-77
2021/03/03 02:50:06;;;;;;;32.60;20.75;;;;;;;;;;1041024;28;20101;-77
2021/03/03 02:50:37;;;;;;;35.67;19.77;;;;;;;;;;1044238;28;20053;-77
2021/03/03 02:51:08;;;;;;;33.90;20.08;;;;;;;;;;1040670;28;20049;-76
2021/03/03 02:51:39;;;;;;;35.78;21.65;;;;;;;;;;1037346;28;20134;-76
2021/03/03 02:52:10;;;;;;;39.28;20.23;;;;;;;;;;1032229;28;20057;-77
2021/03/03 02:52:49;;;;;;;36.80;22.00;;;;;;;;;;1032744;28;20054;-77
2021/03/03 02:53:20;;;;;;;33.60;20.98;;;;;;;;;;1041916;28;20061;-76
2021/03/03 02:53:51;;;;;;;35.40;21.10;;;;;;;;;;1040368;28;20072;-76
2021/03/03 02:54:22;;;;;;;39.13;21.58;;;;;;;;;;1038497;28;20093;-77
2021/03/03 02:54:54;;;;;;;36.35;21.00;;;;;;;;;;1036828;28;20074;-77
2021/03/03 02:55:26;;;;;;;35.80;22.58;;;;;;;;;;1040446;28;20060;-77
2021/03/03 02:55:57;;;;;;;36.17;21.20;;;;;;;;;;1037647;28;20430;-77
2021/03/03 02:56:28;;;;;;;34.90;21.23;;;;;;;;;;1041708;28;20505;-77
2021/03/03 02:57:00;;;;;;;35.78;21.48;;;;;;;;;;1044613;28;20045;-76
2021/03/03 02:57:31;;;;;;;33.67;20.05;;;;;;;;;;1040982;28;20049;-77
2021/03/03 02:58:04;;;;;;;38.55;21.17;;;;;;;;;;1036831;28;20057;-76
2021/03/03 02:58:35;;;;;;;35.92;22.55;;;;;;;;;;1033072;28;20056;-77
2021/03/03 02:59:17;;;;;;;34.15;21.98;;;;;;;;;;1036419;28;20050;-76
2021/03/03 03:00:04;;;;;;;34.17;20.85;;;;;;;;;;1042598;28;20044;-77
2021/03/03 03:00:38;;;;;;;37.17;20.75;;;;;;;;;;1036451;28;20054;-77
2021/03/03 03:01:12;;;;;;;41.30;21.77;;;;;;;;;;1041418;28;20056;-76
2021/03/03 03:01:45;;;;;;;38.92;22.27;;;;;;;;;;1042322;28;20536;-76
2021/03/03 03:02:19;;;;;;;32.80;21.65;;;;;;;;;;1037673;28;20434;-77
2021/03/03 03:03:11;;;;;;;39.38;23.65;;;;;;;;;;1040568;28;20435;-77
2021/03/03 03:03:48;;;;;;;33.38;20.80;;;;;;;;;;1040645;28;20084;-76
2021/03/03 03:04:20;;;;;;;32.28;19.83;;;;;;;;;;1040611;28;20046;-77
2021/03/03 03:04:51;;;;;;;41.17;21.95;;;;;;;;;;1041800;28;20437;-76
2021/03/03 03:05:23;;;;;;;35.58;22.08;;;;;;;;;;1044574;28;20048;-77
2021/03/03 03:06:00;;;;;;;28.55;20.55;;;;;;;;;;1040515;28;20470;-77
2021/03/03 03:06:38;;;;;;;36.20;21.67;;;;;;;;;;1036314;28;20132;-76
2021/03/03 03:07:17;;;;;;;32.45;21.02;;;;;;;;;;1038360;28;20049;-77
2021/03/03 03:07:50;;;;;;;35.55;20.48;;;;;;;;;;1040564;28;20056;-77